createdAt,value
2022-08-31T00:01:38.768Z,14.82
2022-08-31T00:04:08.947Z,14.84
2022-08-31T00:06:38.152Z,14.83
2022-08-31T00:09:08.838Z,14.87
2022-08-31T00:11:37.897Z,14.84
2022-08-31T00:14:12.437Z,14.79
2022-08-31T00:16:46.217Z,14.81
2022-08-31T00:19:15.559Z,14.74
2022-08-31T00:21:44.772Z,14.72
2022-08-31T00:24:14.855Z,14.71
2022-08-31T00:26:44.852Z,14.71
2022-08-31T00:29:13.517Z,14.68
2022-08-31T00:31:46.654Z,14.79
2022-08-31T00:34:15.615Z,14.68
2022-08-31T00:36:46.374Z,14.70
2022-08-31T00:39:15.169Z,14.72
2022-08-31T00:41:43.848Z,14.73
2022-08-31T00:44:12.986Z,14.73
2022-08-31T00:46:45.308Z,14.73
2022-08-31T00:49:19.625Z,14.73
2022-08-31T00:51:51.574Z,14.74
2022-08-31T00:54:26.182Z,14.74
2022-08-31T00:56:55.813Z,14.71
2022-08-31T00:59:25.217Z,14.73
2022-08-31T01:01:54.033Z,14.71
2022-08-31T01:04:24.350Z,14.72
2022-08-31T01:06:53.690Z,14.74
2022-08-31T01:09:25.595Z,14.75
2022-08-31T01:11:54.457Z,14.76
2022-08-31T01:14:23.286Z,14.74
2022-08-31T01:16:55.796Z,14.74
2022-08-31T01:19:39.989Z,14.69
2022-08-31T01:22:17.434Z,14.67
2022-08-31T01:24:49.788Z,14.65
2022-08-31T01:27:30.128Z,14.65
2022-08-31T01:30:01.509Z,14.61
2022-08-31T01:32:31.485Z,14.64
2022-08-31T01:35:11.506Z,14.60
2022-08-31T01:37:40.497Z,14.57
2022-08-31T01:40:13.263Z,14.56
2022-08-31T01:42:41.922Z,14.53
2022-08-31T01:45:12.327Z,14.52
2022-08-31T01:47:42.451Z,14.51
2022-08-31T01:50:13.573Z,14.51
2022-08-31T01:52:41.909Z,14.51
2022-08-31T01:55:12.208Z,14.47
2022-08-31T01:57:40.805Z,14.45
2022-08-31T02:00:10.978Z,14.45
2022-08-31T02:02:39.569Z,14.43
2022-08-31T02:05:10.875Z,14.43
2022-08-31T02:07:39.447Z,14.39
2022-08-31T02:10:08.639Z,14.37
2022-08-31T02:12:38.720Z,14.33
2022-08-31T02:15:08.659Z,14.32
2022-08-31T02:17:37.556Z,14.30
2022-08-31T02:20:10.367Z,14.30
2022-08-31T02:22:38.898Z,14.32
2022-08-31T02:25:09.616Z,14.28
2022-08-31T02:27:40.463Z,14.23
2022-08-31T02:30:11.568Z,14.21
2022-08-31T02:32:40.153Z,14.21
2022-08-31T02:35:09.985Z,14.18
2022-08-31T02:37:39.370Z,14.18
2022-08-31T02:40:12.316Z,14.17
2022-08-31T02:42:52.898Z,14.16
2022-08-31T02:45:23.170Z,14.13
2022-08-31T02:47:51.986Z,14.09
2022-08-31T02:50:21.336Z,14.09
2022-08-31T02:52:50.847Z,14.10
2022-08-31T02:55:19.588Z,14.08
2022-08-31T02:57:53.129Z,14.03
2022-08-31T03:00:24.556Z,14.04
2022-08-31T03:02:53.515Z,13.99
2022-08-31T03:05:22.305Z,14.00
2022-08-31T03:07:51.666Z,13.97
2022-08-31T03:10:23.480Z,13.97
2022-08-31T03:12:54.973Z,13.98
2022-08-31T03:15:26.868Z,13.99
2022-08-31T03:17:55.879Z,13.96
2022-08-31T03:20:26.550Z,13.96
2022-08-31T03:22:55.900Z,13.93
2022-08-31T03:25:28.053Z,13.93
2022-08-31T03:27:58.969Z,13.87
2022-08-31T03:30:29.892Z,13.85
2022-08-31T03:33:02.379Z,13.84
2022-08-31T03:35:32.177Z,13.84
2022-08-31T03:38:02.458Z,13.84
2022-08-31T03:40:31.677Z,13.86
2022-08-31T03:43:01.822Z,13.86
2022-08-31T03:45:32.507Z,13.83
2022-08-31T03:48:01.264Z,13.81
2022-08-31T03:50:29.802Z,13.80
2022-08-31T03:52:58.731Z,13.87
2022-08-31T03:55:28.829Z,13.95
2022-08-31T03:57:58.002Z,13.98
2022-08-31T04:00:29.223Z,13.95
2022-08-31T04:03:00.196Z,13.92
2022-08-31T04:05:29.662Z,13.87
2022-08-31T04:07:58.365Z,13.82
2022-08-31T04:10:26.917Z,13.79
2022-08-31T04:12:55.744Z,13.79
2022-08-31T04:15:25.450Z,13.78
2022-08-31T04:18:00.321Z,13.82
2022-08-31T04:20:29.515Z,13.86
2022-08-31T04:22:58.763Z,13.83
2022-08-31T04:25:27.116Z,13.85
2022-08-31T04:27:58.266Z,13.90
2022-08-31T04:30:27.026Z,13.94
2022-08-31T04:32:55.662Z,13.98
2022-08-31T04:35:27.835Z,13.96
2022-08-31T04:37:56.309Z,13.91
2022-08-31T04:40:30.628Z,13.90
2022-08-31T04:43:00.844Z,13.86
2022-08-31T04:45:31.617Z,13.84
2022-08-31T04:48:01.050Z,13.88
2022-08-31T04:50:31.601Z,13.85
2022-08-31T04:53:03.829Z,13.91
2022-08-31T04:55:34.022Z,13.89
2022-08-31T04:58:02.700Z,13.90
2022-08-31T05:00:31.175Z,13.90
2022-08-31T05:03:00.070Z,13.88
2022-08-31T05:05:28.904Z,13.85
2022-08-31T05:07:58.935Z,13.84
2022-08-31T05:10:28.364Z,13.86
2022-08-31T05:12:56.727Z,13.90
2022-08-31T05:15:25.185Z,13.91
2022-08-31T05:17:53.744Z,13.90
2022-08-31T05:20:22.571Z,13.86
2022-08-31T05:22:51.254Z,13.84
2022-08-31T05:25:21.299Z,13.82
2022-08-31T05:27:49.632Z,13.84
2022-08-31T05:30:18.424Z,13.86
2022-08-31T05:32:47.441Z,13.91
2022-08-31T05:35:16.723Z,13.95
2022-08-31T05:37:45.259Z,13.95
2022-08-31T05:40:14.347Z,13.95
2022-08-31T05:42:44.651Z,13.95
2022-08-31T05:45:13.355Z,13.94
2022-08-31T05:47:42.477Z,13.97
2022-08-31T05:50:12.197Z,14.03
2022-08-31T05:52:40.622Z,14.06
2022-08-31T05:55:10.047Z,14.02
2022-08-31T05:57:40.706Z,14.03
2022-08-31T06:00:13.539Z,14.02
2022-08-31T06:02:43.061Z,14.01
2022-08-31T06:05:13.652Z,13.97
2022-08-31T06:07:42.129Z,13.92
2022-08-31T06:10:12.519Z,13.90
2022-08-31T06:12:44.253Z,13.88
2022-08-31T06:15:17.799Z,13.90
2022-08-31T06:17:46.578Z,13.96
2022-08-31T06:20:18.236Z,13.97
2022-08-31T06:22:48.141Z,13.91
2022-08-31T06:25:19.488Z,13.88
2022-08-31T06:27:49.355Z,13.89
2022-08-31T06:30:22.368Z,13.90
2022-08-31T06:32:56.705Z,13.93
2022-08-31T06:35:27.326Z,13.93
2022-08-31T06:37:57.088Z,13.94
2022-08-31T06:40:27.423Z,13.92
2022-08-31T06:43:01.363Z,13.99
2022-08-31T06:45:32.527Z,14.01
2022-08-31T06:48:03.676Z,14.07
2022-08-31T06:50:35.736Z,14.08
2022-08-31T06:53:04.781Z,14.14
2022-08-31T06:55:33.405Z,14.15
2022-08-31T06:58:02.431Z,14.23
2022-08-31T07:00:33.873Z,14.21
2022-08-31T07:03:23.694Z,14.28
2022-08-31T07:05:53.897Z,14.34
2022-08-31T07:08:25.600Z,14.34
2022-08-31T07:10:54.552Z,14.40
2022-08-31T07:13:31.560Z,14.43
2022-08-31T07:16:11.469Z,14.50
2022-08-31T07:18:42.783Z,14.56
2022-08-31T07:21:14.219Z,14.64
2022-08-31T07:23:44.602Z,14.64
2022-08-31T07:26:17.753Z,14.65
2022-08-31T07:28:53.041Z,14.76
2022-08-31T07:31:44.691Z,14.80
2022-08-31T07:34:15.652Z,14.91
2022-08-31T07:36:58.540Z,14.97
2022-08-31T07:39:45.235Z,15.07
2022-08-31T07:42:16.613Z,15.05
2022-08-31T07:44:53.118Z,15.19
2022-08-31T07:47:30.084Z,15.35
2022-08-31T07:50:03.799Z,15.58
2022-08-31T07:52:38.807Z,15.47
2022-08-31T07:55:09.554Z,15.51
2022-08-31T07:57:45.094Z,15.51
2022-08-31T08:00:20.839Z,15.55
2022-08-31T08:02:54.425Z,15.59
2022-08-31T08:05:28.761Z,15.48
2022-08-31T08:08:09.314Z,15.43
2022-08-31T08:10:52.159Z,15.47
2022-08-31T08:13:23.410Z,15.59
2022-08-31T08:15:54.641Z,15.61
2022-08-31T08:18:24.914Z,15.58
2022-08-31T08:20:53.753Z,15.51
2022-08-31T08:23:28.105Z,15.46
2022-08-31T08:26:01.776Z,15.49
2022-08-31T08:28:40.467Z,15.51
2022-08-31T08:31:14.940Z,15.59
2022-08-31T08:33:46.489Z,15.64
2022-08-31T08:36:18.686Z,15.79
2022-08-31T08:38:50.713Z,15.89
2022-08-31T08:41:21.423Z,15.88
2022-08-31T08:43:57.272Z,15.95
2022-08-31T08:46:35.463Z,16.00
2022-08-31T08:49:19.934Z,16.13
2022-08-31T08:51:53.150Z,16.17
2022-08-31T08:54:30.000Z,16.25
2022-08-31T08:57:01.774Z,16.42
2022-08-31T08:59:31.078Z,16.45
2022-08-31T09:02:07.106Z,16.59
2022-08-31T09:04:51.160Z,16.70
2022-08-31T09:07:35.090Z,16.62
2022-08-31T09:10:11.868Z,16.53
2022-08-31T09:12:49.485Z,16.71
2022-08-31T09:15:36.863Z,16.80
2022-08-31T09:18:18.329Z,16.62
2022-08-31T09:23:49.482Z,16.40
2022-08-31T09:26:19.826Z,16.47
2022-08-31T09:28:53.264Z,16.59
2022-08-31T09:31:37.969Z,16.58
2022-08-31T09:34:14.882Z,16.57
2022-08-31T09:36:43.806Z,16.51
2022-08-31T09:39:23.132Z,16.32
2022-08-31T09:41:54.429Z,16.30
2022-08-31T09:44:34.469Z,16.37
2022-08-31T09:47:07.285Z,16.69
2022-08-31T09:49:38.065Z,16.75
2022-08-31T09:52:43.364Z,16.83
2022-08-31T09:55:25.118Z,17.11
2022-08-31T09:57:59.386Z,17.03
2022-08-31T10:00:34.865Z,16.81
2022-08-31T10:03:19.244Z,16.49
2022-08-31T10:05:48.914Z,16.50
2022-08-31T10:08:36.029Z,16.30
2022-08-31T10:11:12.623Z,16.52
2022-08-31T10:13:43.951Z,16.57
2022-08-31T10:16:26.362Z,17.07
2022-08-31T10:19:02.214Z,17.18
2022-08-31T10:21:44.424Z,17.49
2022-08-31T10:24:28.309Z,17.63
2022-08-31T10:27:10.682Z,17.85
2022-08-31T10:29:44.542Z,17.80
2022-08-31T10:32:25.163Z,17.52
2022-08-31T10:35:06.156Z,17.76
2022-08-31T10:37:43.873Z,18.00
2022-08-31T10:40:18.759Z,18.40
2022-08-31T10:43:00.019Z,18.06
2022-08-31T10:45:30.949Z,18.26
2022-08-31T10:48:02.264Z,18.60
2022-08-31T10:50:40.566Z,18.52
2022-08-31T10:53:22.779Z,18.68
2022-08-31T10:56:02.519Z,18.79
2022-08-31T10:58:42.909Z,18.54
2022-08-31T11:01:18.086Z,18.31
2022-08-31T11:04:01.524Z,18.04
2022-08-31T11:06:39.296Z,18.12
2022-08-31T11:09:18.667Z,18.50
2022-08-31T11:11:58.364Z,18.71
2022-08-31T11:15:06.677Z,18.97
2022-08-31T11:17:50.474Z,19.27
2022-08-31T11:20:51.728Z,19.26
2022-08-31T11:23:50.269Z,19.04
2022-08-31T11:26:51.097Z,18.96
2022-08-31T11:29:37.593Z,18.96
2022-08-31T11:32:15.993Z,19.08
2022-08-31T11:34:51.066Z,19.68
2022-08-31T11:37:56.147Z,19.87
2022-08-31T11:41:00.408Z,19.80
2022-08-31T11:43:53.940Z,20.39
2022-08-31T11:46:45.849Z,20.99
2022-08-31T11:49:41.360Z,20.76
2022-08-31T11:52:30.004Z,20.28
2022-08-31T11:55:06.833Z,20.38
2022-08-31T11:58:20.769Z,20.76
2022-08-31T12:00:54.222Z,21.31
2022-08-31T12:03:55.860Z,21.63
2022-08-31T12:07:06.060Z,20.02
2022-08-31T12:10:10.377Z,20.18
2022-08-31T12:12:55.646Z,19.50
2022-08-31T12:15:34.709Z,19.09
2022-08-31T12:18:19.605Z,19.23
2022-08-31T12:21:17.298Z,20.39
2022-08-31T12:23:58.042Z,20.54
2022-08-31T12:26:48.810Z,20.98
2022-08-31T12:29:27.123Z,20.61
2022-08-31T12:32:23.799Z,20.42
2022-08-31T12:35:01.914Z,20.69
2022-08-31T12:37:32.682Z,20.51
2022-08-31T12:40:18.352Z,21.22
2022-08-31T12:42:58.153Z,21.06
2022-08-31T12:45:46.601Z,21.19
2022-08-31T12:48:27.453Z,21.15
2022-08-31T12:51:01.188Z,20.85
2022-08-31T12:54:03.110Z,21.52
2022-08-31T12:56:40.148Z,21.41
2022-08-31T12:59:21.715Z,21.96
2022-08-31T13:01:52.146Z,22.00
2022-08-31T13:04:23.507Z,22.11
2022-08-31T13:06:52.054Z,21.61
2022-08-31T13:09:35.821Z,21.86
2022-08-31T13:12:04.587Z,22.51
2022-08-31T13:14:42.298Z,21.49
2022-08-31T13:17:16.431Z,21.75
2022-08-31T13:19:51.311Z,21.23
2022-08-31T13:22:29.920Z,21.38
2022-08-31T13:25:14.249Z,21.28
2022-08-31T13:27:50.302Z,21.49
2022-08-31T13:30:25.548Z,20.50
2022-08-31T13:32:55.000Z,21.35
2022-08-31T13:35:28.482Z,21.38
2022-08-31T13:38:04.986Z,21.07
2022-08-31T13:40:37.714Z,21.32
2022-08-31T13:43:09.088Z,21.27
2022-08-31T13:45:47.631Z,21.75
2022-08-31T13:48:26.826Z,21.83
2022-08-31T13:51:07.727Z,22.03
2022-08-31T13:53:43.833Z,22.28
2022-08-31T13:56:44.019Z,21.68
2022-08-31T13:59:29.865Z,21.75
2022-08-31T14:02:02.131Z,22.02
2022-08-31T14:04:39.372Z,22.92
2022-08-31T14:07:08.172Z,23.37
2022-08-31T14:09:37.487Z,24.17
2022-08-31T14:12:10.500Z,23.31
2022-08-31T14:14:43.516Z,21.03
2022-08-31T14:17:16.750Z,20.52
2022-08-31T14:19:47.649Z,20.97
2022-08-31T14:22:30.611Z,22.53
2022-08-31T14:25:01.020Z,22.46
2022-08-31T14:27:30.771Z,23.48
2022-08-31T14:30:00.564Z,23.37
2022-08-31T14:32:33.801Z,23.27
2022-08-31T14:35:02.692Z,24.89
2022-08-31T14:37:31.961Z,24.15
2022-08-31T14:40:07.554Z,25.13
2022-08-31T14:42:40.035Z,25.78
2022-08-31T14:45:12.933Z,26.70
2022-08-31T14:47:44.259Z,26.04
2022-08-31T14:50:18.362Z,25.79
2022-08-31T14:52:53.587Z,25.27
2022-08-31T14:55:27.803Z,24.16
2022-08-31T14:58:02.071Z,23.36
2022-08-31T15:00:44.277Z,21.73
2022-08-31T15:03:15.451Z,23.10
2022-08-31T15:05:44.445Z,22.60
2022-08-31T15:08:13.421Z,21.78
2022-08-31T15:10:42.277Z,22.23
2022-08-31T15:13:11.002Z,21.97
2022-08-31T15:15:39.484Z,20.84
2022-08-31T15:18:10.272Z,20.48
2022-08-31T15:20:42.035Z,22.52
2022-08-31T15:23:11.492Z,24.17
2022-08-31T15:25:39.952Z,24.94
2022-08-31T15:28:09.047Z,25.02
2022-08-31T15:30:39.916Z,26.73
2022-08-31T15:33:11.359Z,26.04
2022-08-31T15:35:42.054Z,24.75
2022-08-31T15:38:12.116Z,22.84
2022-08-31T15:40:41.186Z,25.69
2022-08-31T15:43:16.195Z,24.46
2022-08-31T15:45:45.070Z,25.73
2022-08-31T15:48:31.490Z,26.33
2022-08-31T15:51:01.530Z,27.65
2022-08-31T15:53:31.024Z,23.60
2022-08-31T15:56:05.827Z,25.45
2022-08-31T15:58:34.624Z,26.28
2022-08-31T16:01:05.330Z,26.84
2022-08-31T16:03:35.488Z,24.27
2022-08-31T16:06:06.187Z,21.76
2022-08-31T16:08:34.714Z,22.79
2022-08-31T16:11:03.395Z,24.70
2022-08-31T16:13:32.076Z,26.26
2022-08-31T16:16:01.654Z,26.69
2022-08-31T16:18:31.512Z,28.41
2022-08-31T16:21:07.738Z,25.55
2022-08-31T16:23:36.398Z,23.42
2022-08-31T16:26:06.558Z,22.69
2022-08-31T16:28:36.538Z,24.27
2022-08-31T16:31:06.929Z,23.54
2022-08-31T16:33:35.998Z,22.28
2022-08-31T16:36:06.813Z,21.00
2022-08-31T16:38:35.268Z,20.38
2022-08-31T16:41:04.576Z,22.10
2022-08-31T16:43:32.904Z,25.06
2022-08-31T16:46:24.201Z,26.18
2022-08-31T16:49:12.048Z,23.32
2022-08-31T16:51:45.614Z,21.67
2022-08-31T16:54:17.293Z,20.59
2022-08-31T16:56:52.018Z,20.20
2022-08-31T16:59:21.328Z,20.53
2022-08-31T17:01:49.828Z,21.75
2022-08-31T17:04:41.028Z,24.78
2022-08-31T17:07:13.016Z,25.72
2022-08-31T17:09:42.651Z,26.31
2022-08-31T17:12:13.537Z,24.22
2022-08-31T17:14:47.271Z,22.60
2022-08-31T17:17:20.005Z,21.58
2022-08-31T17:19:48.942Z,21.02
2022-08-31T17:22:26.925Z,22.45
2022-08-31T17:24:58.122Z,22.50
2022-08-31T17:27:29.193Z,21.21
2022-08-31T17:30:01.160Z,24.21
2022-08-31T17:32:30.619Z,23.11
2022-08-31T17:34:59.526Z,22.46
2022-08-31T17:37:36.744Z,23.11
2022-08-31T17:40:09.598Z,22.16
2022-08-31T17:42:38.786Z,21.17
2022-08-31T17:45:09.117Z,23.20
2022-08-31T17:47:37.944Z,25.71
2022-08-31T17:50:08.317Z,24.81
2022-08-31T17:52:38.624Z,22.55
2022-08-31T17:55:07.962Z,22.36
2022-08-31T17:57:36.888Z,23.57
2022-08-31T18:00:22.768Z,25.02
2022-08-31T18:03:13.795Z,22.39
2022-08-31T18:05:55.328Z,21.14
2022-08-31T18:08:39.950Z,20.40
2022-08-31T18:11:19.665Z,19.39
2022-08-31T18:13:53.387Z,19.28
2022-08-31T18:16:22.420Z,19.41
2022-08-31T18:18:52.346Z,18.81
2022-08-31T18:21:24.029Z,18.76
2022-08-31T18:23:56.221Z,18.57
2022-08-31T18:26:28.634Z,18.44
2022-08-31T18:28:58.514Z,18.44
2022-08-31T18:31:31.605Z,18.41
2022-08-31T18:34:04.836Z,18.46
2022-08-31T18:36:35.643Z,18.00
2022-08-31T18:39:07.760Z,17.91
2022-08-31T18:41:54.624Z,17.85
2022-08-31T18:44:52.400Z,18.02
2022-08-31T18:47:22.208Z,18.08
2022-08-31T18:49:52.690Z,18.11
2022-08-31T18:52:23.518Z,18.09
2022-08-31T18:54:56.197Z,17.94
2022-08-31T18:57:26.545Z,17.82
2022-08-31T18:59:58.066Z,17.78
2022-08-31T19:02:27.095Z,17.75
2022-08-31T19:04:55.879Z,17.72
2022-08-31T19:07:25.982Z,17.71
2022-08-31T19:09:56.422Z,17.57
2022-08-31T19:12:24.808Z,17.60
2022-08-31T19:14:55.598Z,17.65
2022-08-31T19:17:24.711Z,17.63
2022-08-31T19:19:54.618Z,17.53
2022-08-31T19:22:23.608Z,17.61
2022-08-31T19:25:11.794Z,17.52
2022-08-31T19:27:56.070Z,17.41
2022-08-31T19:30:59.942Z,17.35
2022-08-31T19:33:35.066Z,17.28
2022-08-31T19:36:12.691Z,17.14
2022-08-31T19:38:48.612Z,17.25
2022-08-31T19:41:35.295Z,17.27
2022-08-31T19:44:11.125Z,17.21
2022-08-31T19:46:52.578Z,17.10
2022-08-31T19:49:23.559Z,17.11
2022-08-31T19:51:58.667Z,17.20
2022-08-31T19:54:41.658Z,17.16
2022-08-31T19:57:16.748Z,17.10
2022-08-31T19:59:49.132Z,17.02
2022-08-31T20:02:20.099Z,16.94
2022-08-31T20:04:49.042Z,16.89
2022-08-31T20:07:19.435Z,16.93
2022-08-31T20:09:49.027Z,16.94
2022-08-31T20:12:19.904Z,16.88
2022-08-31T20:14:52.054Z,16.99
2022-08-31T20:17:27.268Z,17.02
2022-08-31T20:19:58.122Z,16.96
2022-08-31T20:22:30.014Z,17.00
2022-08-31T20:25:01.611Z,16.97
2022-08-31T20:27:39.755Z,16.84
2022-08-31T20:30:10.636Z,16.85
2022-08-31T20:32:40.106Z,16.77
2022-08-31T20:35:10.740Z,16.77
2022-08-31T20:37:41.171Z,16.76
2022-08-31T20:40:16.570Z,16.74
2022-08-31T20:42:48.498Z,16.82
2022-08-31T20:45:17.269Z,16.86
2022-08-31T20:48:04.877Z,16.81
2022-08-31T20:50:35.197Z,16.59
2022-08-31T20:53:07.473Z,16.60
2022-08-31T20:56:55.408Z,16.48
2022-08-31T20:59:47.368Z,16.29
2022-08-31T21:02:17.364Z,16.29
2022-08-31T21:04:48.706Z,16.33
2022-08-31T21:07:23.387Z,16.37
2022-08-31T21:10:29.583Z,16.32
2022-08-31T21:13:09.195Z,16.27
2022-08-31T21:15:45.113Z,16.30
2022-08-31T21:18:17.945Z,16.33
2022-08-31T21:20:56.011Z,16.34
2022-08-31T21:23:36.544Z,16.31
2022-08-31T21:26:08.856Z,16.37
2022-08-31T21:28:40.750Z,16.36
2022-08-31T21:31:16.443Z,16.38
2022-08-31T21:33:59.481Z,16.29
2022-08-31T21:36:32.806Z,16.27
2022-08-31T21:39:02.906Z,16.24
2022-08-31T21:41:32.351Z,16.16
2022-08-31T21:44:02.411Z,16.18
2022-08-31T21:46:35.356Z,16.23
2022-08-31T21:49:05.004Z,16.22
2022-08-31T21:51:36.009Z,16.19
2022-08-31T21:54:07.718Z,16.21
2022-08-31T21:56:44.147Z,16.22
2022-08-31T21:59:13.826Z,15.99
2022-08-31T22:01:45.350Z,15.98
2022-08-31T22:04:16.125Z,16.02
2022-08-31T22:06:46.633Z,16.05
2022-08-31T22:09:17.892Z,16.06
2022-08-31T22:11:50.964Z,16.05
2022-08-31T22:14:26.012Z,16.07
2022-08-31T22:16:58.209Z,16.06
2022-08-31T22:19:28.876Z,16.16
2022-08-31T22:22:00.100Z,16.13
2022-08-31T22:24:31.843Z,16.17
2022-08-31T22:27:05.175Z,16.22
2022-08-31T22:29:35.795Z,16.07
2022-08-31T22:32:12.313Z,16.06
2022-08-31T22:34:42.135Z,16.04
2022-08-31T22:37:11.529Z,16.05
2022-08-31T22:39:42.800Z,16.08
2022-08-31T22:42:13.755Z,16.04
2022-08-31T22:44:44.033Z,16.10
2022-08-31T22:47:15.729Z,16.15
2022-08-31T22:49:44.470Z,16.09
2022-08-31T22:52:17.327Z,16.17
2022-08-31T22:54:46.324Z,16.15
2022-08-31T22:57:16.397Z,16.13
2022-08-31T22:59:45.413Z,16.17
2022-08-31T23:02:18.694Z,16.16
2022-08-31T23:04:48.426Z,16.17
2022-08-31T23:07:22.310Z,16.11
2022-08-31T23:09:51.990Z,16.07
2022-08-31T23:12:22.574Z,15.99
2022-08-31T23:14:51.545Z,15.93
2022-08-31T23:17:23.313Z,15.92
2022-08-31T23:19:54.523Z,16.02
2022-08-31T23:22:24.517Z,15.97
2022-08-31T23:24:53.353Z,15.97
2022-08-31T23:27:23.699Z,16.01
2022-08-31T23:29:56.218Z,16.05
2022-08-31T23:32:29.236Z,15.94
2022-08-31T23:34:58.563Z,16.01
2022-08-31T23:37:30.817Z,16.10
2022-08-31T23:40:00.832Z,16.20
2022-08-31T23:42:30.609Z,16.22
2022-08-31T23:45:00.112Z,16.16
2022-08-31T23:47:33.161Z,16.11
2022-08-31T23:50:04.994Z,16.04
2022-08-31T23:52:41.713Z,15.98
2022-08-31T23:55:11.612Z,15.98
2022-08-31T23:57:41.980Z,16.08
